createdAt,value
2023-03-12T00:00:15.593Z,100647.75
2023-03-12T00:00:38.654Z,100639.03
2023-03-12T00:01:01.436Z,100645.19
2023-03-12T00:01:30.665Z,100649.63
2023-03-12T00:01:52.363Z,100648.75
2023-03-12T00:02:14.011Z,100647.06
2023-03-12T00:02:35.936Z,100654.06
2023-03-12T00:02:59.883Z,100640.00
2023-03-12T00:03:21.519Z,100641.72
2023-03-12T00:03:43.703Z,100646.13
2023-03-12T00:04:06.947Z,100639.97
2023-03-12T00:04:29.002Z,100643.50
2023-03-12T00:04:50.597Z,100645.25
2023-03-12T00:05:12.205Z,100646.16
2023-03-12T00:05:34.941Z,100645.25
2023-03-12T00:05:56.474Z,100644.47
2023-03-12T00:06:19.591Z,100649.69
2023-03-12T00:06:41.253Z,100646.19
2023-03-12T00:07:06.493Z,100650.59
2023-03-12T00:07:28.130Z,100649.69
2023-03-12T00:07:50.236Z,100645.34
2023-03-12T00:08:13.079Z,100640.03
2023-03-12T00:08:35.939Z,100647.06
2023-03-12T00:08:58.213Z,100646.16
2023-03-12T00:09:19.847Z,100644.50
2023-03-12T00:09:41.414Z,100643.59
2023-03-12T00:10:04.409Z,100649.66
2023-03-12T00:10:26.408Z,100644.38
2023-03-12T00:10:48.037Z,100648.78
2023-03-12T00:11:11.683Z,100648.81
2023-03-12T00:11:34.453Z,100642.63
2023-03-12T00:11:56.074Z,100634.81
2023-03-12T00:12:17.728Z,100644.47
2023-03-12T00:12:40.349Z,100637.72
2023-03-12T00:13:02.163Z,100647.31
2023-03-12T00:13:23.857Z,100639.34
2023-03-12T00:13:49.446Z,100642.88
2023-03-12T00:14:12.225Z,100647.19
2023-03-12T00:14:33.880Z,100646.28
2023-03-12T00:14:55.504Z,100640.09
2023-03-12T00:15:17.277Z,100642.72
2023-03-12T00:15:41.744Z,100614.88
2023-03-12T00:16:05.896Z,100635.69
2023-03-12T00:16:28.262Z,100641.13
2023-03-12T00:16:50.877Z,100640.22
2023-03-12T00:17:12.553Z,100634.09
2023-03-12T00:17:34.729Z,100632.41
2023-03-12T00:17:56.367Z,100635.03
2023-03-12T00:18:19.332Z,100641.13
2023-03-12T00:18:43.666Z,100634.97
2023-03-12T00:19:05.373Z,100628.13
2023-03-12T00:19:28.954Z,100628.88
2023-03-12T00:19:53.252Z,100631.50
2023-03-12T00:20:15.198Z,100637.59
2023-03-12T00:20:36.882Z,100640.31
2023-03-12T00:20:58.641Z,100632.34
2023-03-12T00:21:22.413Z,100629.69
2023-03-12T00:21:44.009Z,100637.59
2023-03-12T00:22:05.666Z,100632.31
2023-03-12T00:22:27.765Z,100638.41
2023-03-12T00:22:50.917Z,100636.66
2023-03-12T00:23:12.513Z,100631.38
2023-03-12T00:23:34.756Z,100631.41
2023-03-12T00:23:56.656Z,100620.97
2023-03-12T00:24:18.518Z,100633.13
2023-03-12T00:24:41.171Z,100634.91
2023-03-12T00:25:03.303Z,100633.13
2023-03-12T00:25:25.002Z,100627.94
2023-03-12T00:25:46.992Z,100628.97
2023-03-12T00:26:11.878Z,100636.91
2023-03-12T00:26:33.482Z,100624.59
2023-03-12T00:26:55.169Z,100611.44
2023-03-12T00:27:16.799Z,100625.31
2023-03-12T00:27:39.401Z,100627.94
2023-03-12T00:28:01.038Z,100627.03
2023-03-12T00:28:22.767Z,100627.88
2023-03-12T00:28:45.074Z,100627.88
2023-03-12T00:29:07.645Z,100633.13
2023-03-12T00:29:29.320Z,100626.13
2023-03-12T00:29:51.063Z,100626.09
2023-03-12T00:30:13.246Z,100622.63
2023-03-12T00:30:36.005Z,100631.38
2023-03-12T00:30:58.320Z,100630.50
2023-03-12T00:31:22.324Z,100622.66
2023-03-12T00:31:44.030Z,100619.13
2023-03-12T00:32:07.631Z,100625.22
2023-03-12T00:32:29.414Z,100624.34
2023-03-12T00:32:51.224Z,100623.50
2023-03-12T00:33:13.266Z,100628.75
2023-03-12T00:33:36.281Z,100625.25
2023-03-12T00:33:59.368Z,100626.09
2023-03-12T00:34:21.007Z,100627.84
2023-03-12T00:34:42.897Z,100619.09
2023-03-12T00:35:06.098Z,100622.53
2023-03-12T00:35:28.826Z,100597.28
2023-03-12T00:35:50.742Z,100625.16
2023-03-12T00:36:12.571Z,100626.03
2023-03-12T00:36:34.237Z,100611.16
2023-03-12T00:36:56.814Z,100628.59
2023-03-12T00:37:18.529Z,100622.53
2023-03-12T00:37:40.148Z,100624.22
2023-03-12T00:38:01.746Z,100631.25
2023-03-12T00:38:24.362Z,100623.47
2023-03-12T00:38:45.994Z,100629.69
2023-03-12T00:39:07.759Z,100622.66
2023-03-12T00:39:29.359Z,100621.03
2023-03-12T00:39:51.018Z,100627.13
2023-03-12T00:40:13.925Z,100625.47
2023-03-12T00:40:36.503Z,100603.63
2023-03-12T00:40:58.133Z,100621.03
2023-03-12T00:41:20.722Z,100624.53
2023-03-12T00:41:43.323Z,100618.47
2023-03-12T00:42:05.411Z,100615.84
2023-03-12T00:42:27.255Z,100611.47
2023-03-12T00:42:48.879Z,100615.09
2023-03-12T00:43:10.886Z,100600.31
2023-03-12T00:43:33.479Z,100613.31
2023-03-12T00:43:55.137Z,100616.78
2023-03-12T00:44:16.842Z,100615.91
2023-03-12T00:44:38.613Z,100595.78
2023-03-12T00:45:01.180Z,100611.44
2023-03-12T00:45:22.855Z,100618.41
2023-03-12T00:45:45.417Z,100612.31
2023-03-12T00:46:07.064Z,100609.63
2023-03-12T00:46:29.765Z,100605.31
2023-03-12T00:46:51.516Z,100607.88
2023-03-12T00:47:13.770Z,100613.13
2023-03-12T00:47:35.395Z,100615.78
2023-03-12T00:47:57.088Z,100608.75
2023-03-12T00:48:19.661Z,100601.97
2023-03-12T00:48:42.703Z,100609.75
2023-03-12T00:49:04.485Z,100613.28
2023-03-12T00:49:27.351Z,100621.19
2023-03-12T00:49:48.997Z,100619.41
2023-03-12T00:50:11.095Z,100612.38
2023-03-12T00:50:32.896Z,100611.53
2023-03-12T00:50:55.551Z,100620.28
2023-03-12T00:51:17.187Z,100615.03
2023-03-12T00:51:38.855Z,100604.44
2023-03-12T00:52:00.448Z,100599.28
2023-03-12T00:52:23.001Z,100610.50
2023-03-12T00:52:44.686Z,100608.75
2023-03-12T00:53:06.464Z,100615.78
2023-03-12T00:53:28.094Z,100609.63
2023-03-12T00:53:50.753Z,100606.06
2023-03-12T00:54:12.407Z,100607.81
2023-03-12T00:54:34.040Z,100587.78
2023-03-12T00:54:58.193Z,100611.31
2023-03-12T00:55:20.971Z,100610.44
2023-03-12T00:55:42.743Z,100607.78
2023-03-12T00:56:06.596Z,100604.28
2023-03-12T00:56:28.191Z,100614.97
2023-03-12T00:56:50.811Z,100604.41
2023-03-12T00:57:12.480Z,100608.81
2023-03-12T00:57:34.346Z,100602.69
2023-03-12T00:57:56.184Z,100616.81
2023-03-12T00:58:17.758Z,100620.41
2023-03-12T00:58:42.665Z,100608.13
2023-03-12T00:59:04.301Z,100616.84
2023-03-12T00:59:25.969Z,100605.50
2023-03-12T00:59:47.558Z,100613.44
2023-03-12T01:00:12.549Z,100618.78
2023-03-12T01:00:34.305Z,100619.66
2023-03-12T01:00:55.958Z,100616.97
2023-03-12T01:01:17.870Z,100616.97
2023-03-12T01:01:40.122Z,100616.09
2023-03-12T01:02:02.736Z,100618.72
2023-03-12T01:02:24.336Z,100622.19
2023-03-12T01:02:46.000Z,100609.94
2023-03-12T01:03:07.684Z,100617.84
2023-03-12T01:03:30.314Z,100612.56
2023-03-12T01:03:55.603Z,100608.25
2023-03-12T01:04:17.939Z,100618.72
2023-03-12T01:04:39.573Z,100615.22
2023-03-12T01:05:01.245Z,100602.22
2023-03-12T01:05:24.086Z,100617.84
2023-03-12T01:05:45.765Z,100622.28
2023-03-12T01:06:08.079Z,100621.38
2023-03-12T01:06:29.796Z,100619.72
2023-03-12T01:06:52.394Z,100617.97
2023-03-12T01:07:13.990Z,100613.56
2023-03-12T01:07:36.043Z,100615.28
2023-03-12T01:07:57.724Z,100613.59
2023-03-12T01:08:20.677Z,100611.00
2023-03-12T01:08:42.437Z,100613.66
2023-03-12T01:09:05.276Z,100615.34
2023-03-12T01:09:26.958Z,100611.81
2023-03-12T01:09:49.753Z,100617.09
2023-03-12T01:10:14.713Z,100614.47
2023-03-12T01:10:37.654Z,100612.66
2023-03-12T01:10:59.660Z,100617.91
2023-03-12T01:11:22.866Z,100617.03
2023-03-12T01:11:44.451Z,100618.84
2023-03-12T01:12:06.669Z,100617.03
2023-03-12T01:12:28.283Z,100616.16
2023-03-12T01:12:51.073Z,100622.28
2023-03-12T01:13:13.047Z,100620.50
2023-03-12T01:13:34.700Z,100623.28
2023-03-12T01:13:56.330Z,100611.84
2023-03-12T01:14:18.905Z,100620.56
2023-03-12T01:14:40.509Z,100610.00
2023-03-12T01:15:02.198Z,100612.59
2023-03-12T01:15:23.975Z,100621.41
2023-03-12T01:15:46.567Z,100610.03
2023-03-12T01:16:08.206Z,100607.31
2023-03-12T01:16:30.378Z,100616.03
2023-03-12T01:16:53.101Z,100618.78
2023-03-12T01:17:15.397Z,100612.56
2023-03-12T01:17:37.489Z,100614.28
2023-03-12T01:17:59.101Z,100610.75
2023-03-12T01:18:20.885Z,100608.13
2023-03-12T01:18:43.931Z,100615.97
2023-03-12T01:19:06.929Z,100602.88
2023-03-12T01:19:28.542Z,100611.53
2023-03-12T01:19:50.160Z,100608.13
2023-03-12T01:20:12.492Z,100606.31
2023-03-12T01:20:35.047Z,100596.66
2023-03-12T01:20:56.696Z,100601.00
2023-03-12T01:21:18.286Z,100605.44
2023-03-12T01:21:40.178Z,100604.53
2023-03-12T01:22:02.867Z,100603.75
2023-03-12T01:22:30.482Z,100599.34
2023-03-12T01:23:36.563Z,100601.06
2023-03-12T01:23:58.915Z,100595.72
2023-03-12T01:24:20.784Z,100594.88
2023-03-12T01:24:42.493Z,100601.91
2023-03-12T01:25:05.545Z,100594.88
2023-03-12T01:25:27.217Z,100590.47
2023-03-12T01:25:49.432Z,100597.69
2023-03-12T01:26:11.059Z,100599.50
2023-03-12T01:26:33.850Z,100589.81
2023-03-12T01:26:56.482Z,100589.78
2023-03-12T01:27:18.304Z,100592.53
2023-03-12T01:27:39.952Z,100583.75
2023-03-12T01:28:03.035Z,100593.41
2023-03-12T01:28:25.807Z,100590.84
2023-03-12T01:28:47.648Z,100592.56
2023-03-12T01:29:10.246Z,100595.16
2023-03-12T01:29:31.822Z,100596.09
2023-03-12T01:29:53.940Z,100583.78
2023-03-12T01:30:15.796Z,100588.13
2023-03-12T01:30:38.401Z,100589.97
2023-03-12T01:31:06.770Z,100591.75
2023-03-12T01:31:28.533Z,100585.81
2023-03-12T01:31:50.428Z,100570.19
2023-03-12T01:32:13.050Z,100586.66
2023-03-12T01:32:34.801Z,100585.69
2023-03-12T01:32:56.570Z,100589.16
2023-03-12T01:33:18.458Z,100576.91
2023-03-12T01:33:41.273Z,100589.19
2023-03-12T01:34:03.073Z,100585.63
2023-03-12T01:34:26.054Z,100578.56
2023-03-12T01:34:47.734Z,100585.44
2023-03-12T01:35:10.889Z,100584.56
2023-03-12T01:35:36.553Z,100579.25
2023-03-12T01:35:58.315Z,100581.00
2023-03-12T01:36:22.294Z,100573.91
2023-03-12T01:36:47.659Z,100578.28
2023-03-12T01:37:09.266Z,100573.81
2023-03-12T01:37:32.413Z,100579.16
2023-03-12T01:37:55.855Z,100577.56
2023-03-12T01:38:20.693Z,100583.63
2023-03-12T01:38:42.341Z,100571.47
2023-03-12T01:39:04.400Z,100578.47
2023-03-12T01:39:26.088Z,100579.38
2023-03-12T01:39:48.637Z,100575.91
2023-03-12T01:40:14.815Z,100580.34
2023-03-12T01:40:36.642Z,100555.78
2023-03-12T01:40:59.146Z,100567.94
2023-03-12T01:41:21.885Z,100567.06
2023-03-12T01:41:43.809Z,100575.84
2023-03-12T01:42:06.208Z,100566.19
2023-03-12T01:42:28.842Z,100564.44
2023-03-12T01:42:52.438Z,100565.31
2023-03-12T01:43:25.045Z,100569.63
2023-03-12T01:43:47.826Z,100562.63
2023-03-12T01:44:14.803Z,100568.84
2023-03-12T01:44:55.461Z,100565.44
2023-03-12T01:46:07.228Z,100566.28
2023-03-12T01:46:32.428Z,100565.31
2023-03-12T01:46:54.423Z,100569.69
2023-03-12T01:47:19.471Z,100574.31
2023-03-12T01:47:41.483Z,100567.25
2023-03-12T01:48:05.462Z,100569.00
2023-03-12T01:48:27.970Z,100570.81
2023-03-12T01:48:54.743Z,100571.69
2023-03-12T01:49:21.100Z,100566.44
2023-03-12T01:49:45.980Z,100566.38
2023-03-12T01:50:08.373Z,100576.91
2023-03-12T01:50:30.134Z,100565.44
2023-03-12T01:50:51.992Z,100564.56
2023-03-12T01:51:17.371Z,100562.81
2023-03-12T01:51:42.585Z,100570.72
2023-03-12T01:52:07.378Z,100581.25
2023-03-12T01:52:37.986Z,100567.22
2023-03-12T01:53:00.371Z,100577.81
2023-03-12T01:53:22.879Z,100568.97
2023-03-12T01:53:47.742Z,100576.84
2023-03-12T01:54:15.297Z,100571.59
2023-03-12T01:54:41.143Z,100564.56
2023-03-12T01:55:06.886Z,100564.69
2023-03-12T01:55:31.802Z,100564.69
2023-03-12T01:55:54.366Z,100564.69
2023-03-12T01:56:19.005Z,100564.69
2023-03-12T01:56:41.493Z,100562.00
2023-03-12T01:57:09.209Z,100560.31
2023-03-12T01:57:36.139Z,100566.44
2023-03-12T01:57:58.665Z,100565.56
2023-03-12T01:58:22.126Z,100558.50
2023-03-12T01:58:47.225Z,100562.94
2023-03-12T01:59:15.074Z,100564.63
2023-03-12T01:59:42.507Z,100548.94
2023-03-12T02:00:08.842Z,100561.00
2023-03-12T02:00:38.168Z,100561.81
2023-03-12T02:01:00.579Z,100552.16
2023-03-12T02:01:23.006Z,100552.97
2023-03-12T02:01:46.253Z,100555.53
2023-03-12T02:02:08.625Z,100551.09
2023-03-12T02:02:30.617Z,100555.47
2023-03-12T02:03:00.442Z,100553.84
2023-03-12T02:03:26.754Z,100558.19
2023-03-12T02:03:53.874Z,100552.09
2023-03-12T02:04:19.610Z,100545.94
2023-03-12T02:04:46.923Z,100545.19
2023-03-12T02:05:19.530Z,100543.44
2023-03-12T02:05:47.552Z,100539.94
2023-03-12T02:06:14.207Z,100536.41
2023-03-12T02:06:43.741Z,100530.22
2023-03-12T02:07:08.187Z,100535.44
2023-03-12T02:07:29.791Z,100528.34
2023-03-12T02:07:51.887Z,100526.50
2023-03-12T02:08:16.354Z,100527.44
2023-03-12T02:08:42.474Z,100528.31
2023-03-12T02:09:07.285Z,100524.75
2023-03-12T02:09:29.673Z,100522.03
2023-03-12T02:09:52.572Z,100524.69
2023-03-12T02:10:14.169Z,100521.16
2023-03-12T02:10:35.823Z,100525.75
2023-03-12T02:10:57.527Z,100521.31
2023-03-12T02:11:20.295Z,100523.13
2023-03-12T02:11:42.015Z,100524.09
2023-03-12T02:12:04.277Z,100522.25
2023-03-12T02:12:26.014Z,100524.00
2023-03-12T02:12:47.876Z,100518.88
2023-03-12T02:13:11.238Z,100525.00
2023-03-12T02:13:38.981Z,100516.22
2023-03-12T02:14:00.754Z,100525.78
2023-03-12T02:14:23.379Z,100527.72
2023-03-12T02:14:45.569Z,100527.69
2023-03-12T02:15:08.587Z,100532.03
2023-03-12T02:15:30.290Z,100524.97
2023-03-12T02:15:52.954Z,100518.88
2023-03-12T02:16:15.162Z,100519.69
2023-03-12T02:16:36.978Z,100521.38
2023-03-12T02:16:59.924Z,100527.56
2023-03-12T02:17:21.616Z,100521.38
2023-03-12T02:17:43.442Z,100527.50
2023-03-12T02:18:07.194Z,100523.94
2023-03-12T02:18:30.217Z,100515.19
2023-03-12T02:18:54.965Z,100517.78
2023-03-12T02:19:23.544Z,100515.94
2023-03-12T02:19:53.700Z,100525.56
2023-03-12T02:20:21.098Z,100522.78
2023-03-12T02:20:49.610Z,100519.31
2023-03-12T02:21:20.355Z,100523.72
2023-03-12T02:21:42.259Z,100522.94
2023-03-12T02:22:05.006Z,100521.56
2023-03-12T02:22:26.754Z,100519.75
2023-03-12T02:22:58.429Z,100520.56
2023-03-12T02:23:28.941Z,100525.00
2023-03-12T02:24:00.710Z,100515.28
2023-03-12T02:24:31.810Z,100515.28
2023-03-12T02:25:03.655Z,100517.94
2023-03-12T02:25:30.954Z,100526.69
2023-03-12T02:25:55.127Z,100518.75
2023-03-12T02:26:19.618Z,100511.72
2023-03-12T02:26:41.622Z,100518.81
2023-03-12T02:27:05.845Z,100520.56
2023-03-12T02:27:28.900Z,100516.22
2023-03-12T02:27:51.732Z,100519.75
2023-03-12T02:28:15.685Z,100510.91
2023-03-12T02:28:43.827Z,100514.38
2023-03-12T02:29:09.526Z,100520.50
2023-03-12T02:29:34.185Z,100518.75
2023-03-12T02:29:55.925Z,100517.84
2023-03-12T02:30:19.442Z,100517.81
2023-03-12T02:30:46.239Z,100510.81
2023-03-12T02:31:09.961Z,100513.41
2023-03-12T02:31:43.296Z,100514.34
2023-03-12T02:32:09.205Z,100516.09
2023-03-12T02:32:36.046Z,100516.03
2023-03-12T02:32:59.825Z,100516.03
2023-03-12T02:33:21.501Z,100515.28
2023-03-12T02:33:43.308Z,100517.88
2023-03-12T02:34:05.887Z,100519.53
2023-03-12T02:34:27.701Z,100515.16
2023-03-12T02:34:50.638Z,100514.28
2023-03-12T02:35:14.330Z,100515.97
2023-03-12T02:35:37.842Z,100513.34
2023-03-12T02:35:59.635Z,100515.06
2023-03-12T02:36:22.290Z,100510.69
2023-03-12T02:36:43.897Z,100515.09
2023-03-12T02:37:06.708Z,100506.31
2023-03-12T02:37:28.427Z,100515.25
2023-03-12T02:37:52.644Z,100514.34
2023-03-12T02:38:37.989Z,100511.78
2023-03-12T02:39:00.669Z,100514.53
2023-03-12T02:39:22.668Z,100512.78
2023-03-12T02:39:51.631Z,100513.59
2023-03-12T02:40:18.709Z,100519.63
2023-03-12T02:40:46.819Z,100510.91
2023-03-12T02:41:18.702Z,100516.06
2023-03-12T02:41:43.691Z,100518.66
2023-03-12T02:42:05.749Z,100516.91
2023-03-12T02:42:27.466Z,100518.66
2023-03-12T02:42:49.437Z,100515.09
2023-03-12T02:43:12.538Z,100515.03
2023-03-12T02:43:35.142Z,100515.03
2023-03-12T02:44:02.252Z,100511.50
2023-03-12T02:44:26.786Z,100513.31
2023-03-12T02:44:48.669Z,100509.81
2023-03-12T02:45:10.734Z,100508.06
2023-03-12T02:45:34.024Z,100509.75
2023-03-12T02:45:56.997Z,100512.38
2023-03-12T02:46:19.044Z,100508.88
2023-03-12T02:46:43.710Z,100507.09
2023-03-12T02:47:05.790Z,100514.09
2023-03-12T02:47:28.469Z,100508.00
2023-03-12T02:47:50.115Z,100509.75
2023-03-12T02:48:11.729Z,100513.19
2023-03-12T02:48:33.511Z,100510.56
2023-03-12T02:48:56.174Z,100508.75
2023-03-12T02:49:21.471Z,100513.94
2023-03-12T02:49:43.158Z,100506.09
2023-03-12T02:50:05.886Z,100512.09
2023-03-12T02:50:27.754Z,100508.59
2023-03-12T02:50:49.411Z,100518.22
2023-03-12T02:51:12.145Z,100512.09
2023-03-12T02:51:33.801Z,100508.63
2023-03-12T02:51:56.131Z,100511.28
2023-03-12T02:52:18.652Z,100515.69
2023-03-12T02:52:40.353Z,100512.31
2023-03-12T02:53:01.948Z,100516.69
2023-03-12T02:53:23.543Z,100511.41
2023-03-12T02:53:46.512Z,100517.44
2023-03-12T02:54:09.662Z,100513.97
2023-03-12T02:54:31.846Z,100514.88
2023-03-12T02:54:53.453Z,100517.44
2023-03-12T02:55:15.068Z,100516.56
2023-03-12T02:55:36.780Z,100506.09
2023-03-12T02:56:01.055Z,100520.06
2023-03-12T02:56:23.541Z,100513.91
2023-03-12T02:56:45.201Z,100516.63
2023-03-12T02:57:06.805Z,100518.31
2023-03-12T02:57:30.080Z,100511.34
2023-03-12T02:57:51.896Z,100508.78
2023-03-12T02:58:13.598Z,100516.63
2023-03-12T02:58:36.226Z,100515.75
2023-03-12T02:58:59.367Z,100510.44
2023-03-12T02:59:25.234Z,100513.19
2023-03-12T02:59:48.082Z,100515.81
2023-03-12T03:00:12.604Z,100512.31
2023-03-12T03:00:37.771Z,100516.63
2023-03-12T03:00:59.473Z,100508.66
2023-03-12T03:01:21.622Z,100511.22
2023-03-12T03:01:43.359Z,100509.47
2023-03-12T03:02:06.979Z,100509.47
2023-03-12T03:02:28.649Z,100510.31
2023-03-12T03:02:50.353Z,100513.78
2023-03-12T03:03:12.079Z,100505.94
2023-03-12T03:03:33.729Z,100505.03
2023-03-12T03:03:56.577Z,100513.19
2023-03-12T03:04:18.364Z,100507.00
2023-03-12T03:04:40.634Z,100508.66
2023-03-12T03:05:02.206Z,100514.78
2023-03-12T03:05:23.990Z,100512.19
2023-03-12T03:05:46.592Z,100513.94
2023-03-12T03:06:08.610Z,100515.69
2023-03-12T03:06:30.997Z,100513.94
2023-03-12T03:06:52.852Z,100513.91
2023-03-12T03:07:15.777Z,100510.34
2023-03-12T03:07:37.864Z,100512.09
2023-03-12T03:07:59.491Z,100509.47
2023-03-12T03:08:21.302Z,100511.16
2023-03-12T03:08:44.370Z,100514.72
2023-03-12T03:09:06.080Z,100508.53
2023-03-12T03:09:27.788Z,100498.03
2023-03-12T03:09:49.528Z,100512.03
2023-03-12T03:10:12.409Z,100507.72
2023-03-12T03:10:34.268Z,100507.69
2023-03-12T03:10:56.112Z,100501.63
2023-03-12T03:11:19.487Z,100498.97
2023-03-12T03:11:42.419Z,100506.00
2023-03-12T03:12:05.033Z,100504.25
2023-03-12T03:12:28.275Z,100497.38
2023-03-12T03:12:51.566Z,100502.75
2023-03-12T03:13:14.297Z,100506.31
2023-03-12T03:13:35.965Z,100505.34
2023-03-12T03:13:57.711Z,100500.03
2023-03-12T03:14:19.385Z,100501.72
2023-03-12T03:14:44.046Z,100500.81
2023-03-12T03:15:08.699Z,100501.63
2023-03-12T03:15:30.836Z,100503.38
2023-03-12T03:15:52.747Z,100503.31
2023-03-12T03:16:14.772Z,100498.91
2023-03-12T03:16:37.607Z,100496.34
2023-03-12T03:16:59.264Z,100497.22
2023-03-12T03:17:23.332Z,100502.59
2023-03-12T03:17:45.029Z,100494.69
2023-03-12T03:18:07.681Z,100493.78
2023-03-12T03:18:29.926Z,100497.31
2023-03-12T03:18:51.738Z,100499.88
2023-03-12T03:19:13.673Z,100496.44
2023-03-12T03:19:36.297Z,100504.34
2023-03-12T03:19:58.838Z,100500.91
2023-03-12T03:20:21.357Z,100503.59
2023-03-12T03:20:44.588Z,100498.25
2023-03-12T03:21:09.324Z,100499.94
2023-03-12T03:21:31.977Z,100503.38
2023-03-12T03:21:53.634Z,100501.63
2023-03-12T03:22:15.317Z,100507.72
2023-03-12T03:22:38.085Z,100505.97
2023-03-12T03:22:59.739Z,100476.44
2023-03-12T03:23:21.437Z,100497.31
2023-03-12T03:23:44.092Z,100503.56
2023-03-12T03:24:07.178Z,100497.59
2023-03-12T03:24:28.929Z,100500.22
2023-03-12T03:24:50.518Z,100490.63
2023-03-12T03:25:12.199Z,100495.91
2023-03-12T03:25:34.139Z,100494.97
2023-03-12T03:25:57.294Z,100494.91
2023-03-12T03:26:22.374Z,100488.81
2023-03-12T03:26:44.572Z,100486.03
2023-03-12T03:27:06.274Z,100486.91
2023-03-12T03:27:29.049Z,100488.75
2023-03-12T03:27:50.835Z,100486.09
2023-03-12T03:28:12.512Z,100485.22
2023-03-12T03:28:34.282Z,100482.66
2023-03-12T03:28:56.939Z,100473.84
2023-03-12T03:29:18.607Z,100479.09
2023-03-12T03:29:40.271Z,100487.03
2023-03-12T03:30:03.759Z,100479.09
2023-03-12T03:30:29.070Z,100478.28
2023-03-12T03:30:52.993Z,100484.38
2023-03-12T03:31:15.313Z,100474.78
2023-03-12T03:31:37.745Z,100487.28
2023-03-12T03:32:00.509Z,100484.66
2023-03-12T03:32:22.127Z,100477.75
2023-03-12T03:32:43.842Z,100475.00
2023-03-12T03:33:06.870Z,100476.66
2023-03-12T03:33:29.929Z,100474.84
2023-03-12T03:33:51.912Z,100469.53
2023-03-12T03:34:13.633Z,100478.22
2023-03-12T03:34:35.353Z,100473.75
2023-03-12T03:34:57.119Z,100474.59
2023-03-12T03:35:22.066Z,100471.94
2023-03-12T03:35:43.711Z,100478.16
2023-03-12T03:36:08.188Z,100473.91
2023-03-12T03:36:34.115Z,100478.22
2023-03-12T03:37:04.366Z,100471.34
2023-03-12T03:37:26.745Z,100459.13
2023-03-12T03:37:48.372Z,100476.53
2023-03-12T03:38:10.058Z,100466.09
2023-03-12T03:38:34.615Z,100472.16
2023-03-12T03:38:56.372Z,100462.50
2023-03-12T03:39:18.567Z,100466.91
2023-03-12T03:39:41.727Z,100474.84
2023-03-12T03:40:03.963Z,100473.09
2023-03-12T03:40:25.669Z,100473.09
2023-03-12T03:40:47.349Z,100463.56
2023-03-12T03:41:09.881Z,100470.81
2023-03-12T03:41:37.761Z,100476.84
2023-03-12T03:41:59.505Z,100471.56
2023-03-12T03:42:22.672Z,100473.38
2023-03-12T03:42:45.261Z,100475.94
2023-03-12T03:43:06.981Z,100472.63
2023-03-12T03:43:29.269Z,100474.34
2023-03-12T03:43:50.898Z,100481.28
2023-03-12T03:44:15.637Z,100486.50
2023-03-12T03:44:37.765Z,100485.59
2023-03-12T03:44:59.391Z,100480.25
2023-03-12T03:45:21.171Z,100487.28
2023-03-12T03:45:44.740Z,100492.66
2023-03-12T03:46:06.541Z,100490.00
2023-03-12T03:46:32.433Z,100494.31
2023-03-12T03:46:58.811Z,100493.34
2023-03-12T03:47:21.374Z,100486.28
2023-03-12T03:47:43.015Z,100489.75
2023-03-12T03:48:05.815Z,100486.28
2023-03-12T03:48:27.820Z,100486.25
2023-03-12T03:48:50.889Z,100488.88
2023-03-12T03:49:12.529Z,100484.44
2023-03-12T03:49:35.967Z,100488.03
2023-03-12T03:49:57.639Z,100484.47
2023-03-12T03:50:20.395Z,100483.56
2023-03-12T03:50:42.612Z,100487.03
2023-03-12T03:51:06.419Z,100481.75
2023-03-12T03:51:31.985Z,100486.13
2023-03-12T03:51:59.933Z,100467.78
2023-03-12T03:52:27.798Z,100480.09
2023-03-12T03:52:49.443Z,100474.03
2023-03-12T03:53:12.577Z,100479.31
2023-03-12T03:53:35.811Z,100481.00
2023-03-12T03:54:00.292Z,100478.38
2023-03-12T03:54:22.264Z,100483.63
2023-03-12T03:54:44.305Z,100478.44
2023-03-12T03:55:07.379Z,100475.75
2023-03-12T03:55:29.058Z,100480.19
2023-03-12T03:55:50.790Z,100475.81
2023-03-12T03:56:14.747Z,100482.84
2023-03-12T03:56:43.048Z,100485.59
2023-03-12T03:57:05.266Z,100480.25
2023-03-12T03:57:27.244Z,100481.13
2023-03-12T03:57:49.115Z,100483.75
2023-03-12T03:58:10.940Z,100487.28
2023-03-12T03:58:33.770Z,100483.81
2023-03-12T03:58:55.539Z,100475.06
2023-03-12T03:59:17.524Z,100485.59
2023-03-12T03:59:39.632Z,100476.00
2023-03-12T04:00:03.804Z,100484.72
2023-03-12T04:00:35.301Z,100477.69
2023-03-12T04:00:57.012Z,100466.28
2023-03-12T04:01:19.530Z,100473.22
2023-03-12T04:01:43.029Z,100468.84
2023-03-12T04:02:04.737Z,100479.31
2023-03-12T04:02:29.541Z,100481.88
2023-03-12T04:02:51.284Z,100480.94
2023-03-12T04:03:14.236Z,100478.28
2023-03-12T04:03:36.244Z,100480.84
2023-03-12T04:03:59.630Z,100473.97
2023-03-12T04:04:21.555Z,100473.03
2023-03-12T04:04:44.300Z,100475.66
2023-03-12T04:05:06.600Z,100471.19
2023-03-12T04:05:28.321Z,100478.16
2023-03-12T04:05:55.062Z,100474.69
2023-03-12T04:06:17.681Z,100469.44
2023-03-12T04:06:39.966Z,100476.41
2023-03-12T04:07:01.511Z,100470.25
2023-03-12T04:07:23.398Z,100467.59
2023-03-12T04:07:46.046Z,100471.25
2023-03-12T04:08:08.758Z,100476.59
2023-03-12T04:08:32.849Z,100473.91
2023-03-12T04:08:55.447Z,100468.72
2023-03-12T04:09:19.120Z,100467.03
2023-03-12T04:09:40.892Z,100466.09
2023-03-12T04:10:03.251Z,100471.41
2023-03-12T04:10:25.414Z,100470.56
2023-03-12T04:10:48.057Z,100471.34
2023-03-12T04:11:11.851Z,100463.47
2023-03-12T04:11:33.525Z,100471.22
2023-03-12T04:11:57.778Z,100472.22
2023-03-12T04:12:23.945Z,100471.22
2023-03-12T04:12:45.754Z,100471.19
2023-03-12T04:13:07.359Z,100469.38
2023-03-12T04:13:29.093Z,100475.56
2023-03-12T04:13:51.099Z,100480.84
2023-03-12T04:14:16.612Z,100466.75
2023-03-12T04:14:41.171Z,100468.50
2023-03-12T04:15:04.326Z,100469.31
2023-03-12T04:15:26.145Z,100472.75
2023-03-12T04:15:49.504Z,100478.00
2023-03-12T04:16:12.691Z,100468.28
2023-03-12T04:16:34.420Z,100480.56
2023-03-12T04:16:57.040Z,100478.00
2023-03-12T04:17:20.109Z,100473.56
2023-03-12T04:17:42.028Z,100447.50
2023-03-12T04:18:03.959Z,100484.09
2023-03-12T04:18:26.022Z,100469.19
2023-03-12T04:18:48.969Z,100476.16
2023-03-12T04:19:11.745Z,100477.03
2023-03-12T04:19:33.475Z,100477.94
2023-03-12T04:19:55.178Z,100477.03
2023-03-12T04:20:18.284Z,100474.47
2023-03-12T04:20:39.874Z,100478.00
2023-03-12T04:21:03.273Z,100478.06
2023-03-12T04:21:24.968Z,100473.66
2023-03-12T04:21:47.690Z,100474.50
2023-03-12T04:22:09.331Z,100469.22
2023-03-12T04:22:31.050Z,100470.97
2023-03-12T04:22:52.785Z,100466.72
2023-03-12T04:23:15.394Z,100476.31
2023-03-12T04:23:38.109Z,100459.66
2023-03-12T04:24:00.220Z,100471.88
2023-03-12T04:24:25.779Z,100473.56
2023-03-12T04:24:48.428Z,100473.81